Time;durP1;ratioP1;P1;durP2;ratioP2;P2;SDS_P1;SDS_P2;PMS_P1;PMS_P2;Temp;Humidity;BMP_temperature;BMP_pressure;BME280_temperature;BME280_humidity;BME280_pressure;Samples;Min_cycle;Max_cycle;Signal;HPM_P1;HPM_P2
2023/05/06 00:00:06;;;;;;;3.40;3.20;;;21.30;59.60;21.90;100865.00;;;;5030574;28;20202;-54
2023/05/06 00:02:31;;;;;;;3.43;3.13;;;21.30;59.60;21.90;100860.00;;;;5030377;28;20268;-54
2023/05/06 00:04:58;;;;;;;3.43;3.20;;;21.30;59.70;21.90;100854.00;;;;5033604;28;20190;-53
2023/05/06 00:07:24;;;;;;;3.20;3.00;;;21.30;59.70;21.80;100848.00;;;;5041481;28;20270;-54
2023/05/06 00:09:49;;;;;;;3.43;3.23;;;21.30;59.70;21.80;100847.00;;;;5030624;28;20233;-54
2023/05/06 00:12:15;;;;;;;3.10;2.90;;;21.20;59.60;21.80;100854.00;;;;5029250;28;20210;-55
2023/05/06 00:14:41;;;;;;;3.43;3.13;;;21.20;59.60;21.80;100849.00;;;;5029391;28;20178;-53
2023/05/06 00:17:06;;;;;;;3.43;3.13;;;21.20;59.70;21.80;100850.00;;;;5029049;28;20197;-53
2023/05/06 00:19:32;;;;;;;3.60;3.30;;;21.20;59.60;21.80;100844.00;;;;5029198;28;20217;-55
2023/05/06 00:21:58;;;;;;;3.67;3.00;;;21.20;59.70;21.80;100775.00;;;;5027681;28;20193;-54
2023/05/06 00:24:24;;;;;;;3.50;3.30;;;21.20;59.70;21.70;100836.00;;;;5029144;28;20177;-55
2023/05/06 00:26:49;;;;;;;3.40;3.20;;;21.20;59.70;21.80;100773.00;;;;5028722;28;20604;-53
2023/05/06 00:29:15;;;;;;;3.40;3.20;;;21.10;59.60;21.70;100831.00;;;;5027496;28;20640;-54
2023/05/06 00:31:41;;;;;;;3.53;3.27;;;21.10;59.70;21.70;100823.00;;;;5027541;28;20202;-54
2023/05/06 00:34:07;;;;;;;3.20;3.00;;;21.10;60.40;21.70;100783.00;;;;5028814;28;20202;-53
2023/05/06 00:36:33;;;;;;;3.10;2.90;;;21.10;59.70;21.70;100818.00;;;;5033412;28;20517;-54
2023/05/06 00:38:59;;;;;;;3.50;3.20;;;21.10;59.70;21.70;100828.00;;;;5035004;28;20206;-54
2023/05/06 00:41:25;;;;;;;3.60;3.40;;;21.10;59.70;21.70;100821.00;;;;5033681;28;20182;-54
2023/05/06 00:43:50;;;;;;;3.30;3.10;;;21.10;59.80;21.70;100824.00;;;;5033005;28;20187;-54
2023/05/06 00:46:16;;;;;;;3.60;3.30;;;21.10;59.70;21.70;100798.00;;;;5028439;28;20522;-54
2023/05/06 00:48:43;;;;;;;3.60;3.30;;;21.10;59.70;21.60;100811.00;;;;5027110;28;20562;-55
2023/05/06 00:51:09;;;;;;;3.67;3.37;;;21.00;59.70;21.60;100797.00;;;;5026738;28;20300;-54
2023/05/06 00:53:35;;;;;;;3.30;3.10;;;21.00;59.70;21.60;100810.00;;;;5027340;28;20232;-53
2023/05/06 00:56:02;;;;;;;3.30;3.10;;;21.00;59.60;21.60;100814.00;;;;5026870;28;20179;-53
2023/05/06 00:58:28;;;;;;;3.50;3.30;;;21.00;59.70;21.60;100818.00;;;;5026983;28;20214;-53
2023/05/06 01:00:54;;;;;;;3.50;3.30;;;21.00;59.80;21.60;100808.00;;;;5027155;28;20193;-53
2023/05/06 01:03:19;;;;;;;3.20;3.00;;;21.00;59.70;21.60;100817.00;;;;5027018;28;20181;-54
2023/05/06 01:06:23;;;;;;;3.47;3.27;;;21.00;59.70;21.60;100816.00;;;;5028588;28;20174;-54
2023/05/06 01:08:57;;;;;;;3.43;3.20;;;21.00;59.60;21.60;100808.00;;;;5018298;28;20781;-53
2023/05/06 01:11:32;;;;;;;3.40;3.10;;;21.00;59.70;21.50;100817.00;;;;5026931;28;20329;-55
2023/05/06 01:14:11;;;;;;;3.40;3.20;;;21.00;59.70;21.50;100815.00;;;;5027192;28;20222;-54
2023/05/06 01:16:37;;;;;;;3.53;3.30;;;20.90;59.60;21.50;100815.00;;;;5027381;28;20756;-54
2023/05/06 01:19:03;;;;;;;3.57;3.27;;;20.90;59.60;21.50;100806.00;;;;5027205;28;20202;-54
2023/05/06 01:21:33;;;;;;;3.37;3.17;;;20.90;59.60;21.50;100809.00;;;;5027190;28;20551;-55
2023/05/06 01:23:59;;;;;;;3.77;3.47;;;20.90;59.60;21.50;100820.00;;;;5026868;28;20189;-54
2023/05/06 01:26:25;;;;;;;3.50;3.20;;;20.90;59.60;21.50;100818.00;;;;5028120;28;20190;-54
2023/05/06 01:28:50;;;;;;;4.00;3.67;;;20.90;59.60;21.50;100817.00;;;;5027909;28;20696;-54
2023/05/06 01:31:37;;;;;;;3.40;3.20;;;20.90;59.60;21.50;100818.00;;;;5027914;28;20681;-54
2023/05/06 01:34:17;;;;;;;3.13;2.93;;;20.90;59.60;21.40;100803.00;;;;5026610;28;20185;-55
2023/05/06 01:37:02;;;;;;;3.40;3.10;;;20.90;59.60;21.40;100810.00;;;;5026780;28;20183;-54
2023/05/06 01:39:29;;;;;;;3.60;3.30;;;20.80;59.50;21.40;100815.00;;;;5028258;28;20202;-56
2023/05/06 01:41:56;;;;;;;3.37;3.07;;;20.80;59.60;21.40;100820.00;;;;5027946;28;20183;-55
2023/05/06 01:44:22;;;;;;;3.37;3.07;;;20.80;59.50;21.20;100817.00;;;;5026640;28;20546;-54
2023/05/06 01:46:48;;;;;;;3.60;3.30;;;20.80;59.60;21.40;100816.00;;;;5028301;28;20233;-54
2023/05/06 01:49:14;;;;;;;3.50;3.20;;;20.80;59.60;21.40;100808.00;;;;5029876;28;20738;-54
2023/05/06 01:51:40;;;;;;;3.13;2.93;;;20.80;59.60;21.40;100827.00;;;;5032216;28;20244;-53
2023/05/06 01:54:06;;;;;;;3.50;3.30;;;20.80;59.50;21.30;100817.00;;;;5019485;28;20184;-54
2023/05/06 01:56:32;;;;;;;3.67;3.37;;;20.80;59.50;21.30;100817.00;;;;5039516;28;20195;-55
2023/05/06 01:58:58;;;;;;;3.30;3.10;;;20.80;59.50;21.30;100816.00;;;;5032445;28;20258;-53
2023/05/06 02:01:24;;;;;;;3.30;3.07;;;20.70;59.40;21.30;100818.00;;;;5033241;28;20175;-53
2023/05/06 02:03:49;;;;;;;3.20;3.00;;;20.70;59.50;21.30;100827.00;;;;5032774;28;20252;-53
2023/05/06 02:06:15;;;;;;;3.30;3.00;;;20.70;59.50;21.30;100825.00;;;;5033086;28;20302;-54
2023/05/06 02:08:41;;;;;;;3.20;3.00;;;20.70;59.40;21.30;100824.00;;;;5043720;28;20273;-53
2023/05/06 02:11:07;;;;;;;3.20;3.00;;;20.70;59.40;21.30;100824.00;;;;5031322;28;20207;-55
2023/05/06 02:13:33;;;;;;;3.40;3.10;;;20.70;59.40;21.30;100815.00;;;;5031983;28;20368;-54
2023/05/06 02:15:58;;;;;;;3.13;2.83;;;20.70;59.40;21.20;100812.00;;;;5031428;28;20266;-53
2023/05/06 02:18:24;;;;;;;3.17;2.97;;;20.70;59.40;21.20;100813.00;;;;5031361;28;20540;-54
2023/05/06 02:20:50;;;;;;;3.30;3.10;;;20.70;59.40;21.20;100820.00;;;;5031337;28;20223;-54
2023/05/06 02:23:16;;;;;;;3.00;2.80;;;20.70;59.40;21.20;100823.00;;;;5031523;28;20631;-53
2023/05/06 02:25:42;;;;;;;3.50;3.30;;;20.60;59.40;21.20;100822.00;;;;5031486;28;20186;-54
2023/05/06 02:28:07;;;;;;;3.20;3.00;;;20.70;59.40;21.20;100817.00;;;;5030788;28;20217;-53
2023/05/06 02:30:34;;;;;;;3.30;3.10;;;20.60;59.40;21.20;100822.00;;;;5022896;28;20301;-54
2023/05/06 02:32:59;;;;;;;3.17;2.97;;;20.60;59.40;21.20;100819.00;;;;5031160;28;20276;-53
2023/05/06 02:35:25;;;;;;;3.30;3.00;;;20.60;59.40;20.90;100820.00;;;;5029701;28;20187;-54
2023/05/06 02:37:51;;;;;;;3.10;2.90;;;20.60;59.40;21.20;100812.00;;;;5022765;28;20175;-54
2023/05/06 02:40:17;;;;;;;3.00;2.80;;;20.60;59.40;21.10;100818.00;;;;5030989;28;20202;-53
2023/05/06 02:42:42;;;;;;;3.07;2.87;;;20.60;59.30;21.10;100814.00;;;;5031297;28;20202;-54
2023/05/06 02:45:09;;;;;;;3.30;3.10;;;20.50;59.30;21.10;100812.00;;;;5030833;28;20677;-55
2023/05/06 02:47:34;;;;;;;3.20;3.00;;;20.60;59.40;21.10;100809.00;;;;5030970;28;20276;-56
2023/05/06 02:50:00;;;;;;;3.10;2.90;;;20.50;59.30;21.10;100807.00;;;;5030613;28;20285;-53
2023/05/06 02:52:26;;;;;;;3.10;2.90;;;20.50;59.30;21.10;100804.00;;;;5030739;28;20889;-54
2023/05/06 02:54:52;;;;;;;2.93;2.73;;;20.50;59.30;21.10;100812.00;;;;5030355;28;20229;-53
2023/05/06 02:57:18;;;;;;;3.20;3.00;;;20.50;59.40;21.10;100803.00;;;;5030696;28;20206;-55
2023/05/06 02:59:44;;;;;;;3.07;2.80;;;20.50;59.40;21.10;100806.00;;;;5030660;28;20206;-53
2023/05/06 03:02:09;;;;;;;3.10;2.90;;;20.50;59.40;21.10;100810.00;;;;5030626;28;20201;-54
2023/05/06 03:04:35;;;;;;;3.20;3.00;;;20.50;59.40;21.00;100806.00;;;;5030634;28;20601;-54
2023/05/06 03:07:01;;;;;;;3.27;2.97;;;20.50;59.40;21.00;100807.00;;;;5029843;28;20250;-54
2023/05/06 03:09:26;;;;;;;3.20;3.00;;;20.50;59.40;21.00;100802.00;;;;5030194;28;20295;-54
2023/05/06 03:11:52;;;;;;;3.10;2.90;;;20.50;59.40;21.00;100806.00;;;;5030413;28;20235;-54
2023/05/06 03:14:18;;;;;;;3.17;2.97;;;20.40;59.40;21.00;100804.00;;;;5030398;28;20198;-54
2023/05/06 03:16:43;;;;;;;3.10;2.90;;;20.40;59.40;20.90;100815.00;;;;5030308;28;20171;-55
2023/05/06 03:19:09;;;;;;;3.07;2.87;;;20.40;59.40;20.90;100810.00;;;;5030186;28;20206;-53
2023/05/06 03:21:35;;;;;;;3.00;2.80;;;20.40;59.40;20.90;100805.00;;;;5028770;28;20677;-55
2023/05/06 03:24:00;;;;;;;3.10;2.90;;;20.40;59.40;20.90;100816.00;;;;5028768;28;20270;-53
2023/05/06 03:26:26;;;;;;;3.53;3.07;;;20.40;59.40;20.90;100805.00;;;;5029950;28;20186;-54
2023/05/06 03:28:52;;;;;;;3.67;3.27;;;20.40;59.40;20.90;100815.00;;;;5030011;28;20213;-53
2023/05/06 03:31:17;;;;;;;3.33;3.03;;;20.40;59.90;20.90;100813.00;;;;5030183;28;20310;-54
2023/05/06 03:33:43;;;;;;;5.03;3.20;;;20.40;59.90;20.90;100815.00;;;;5030051;28;20181;-52
2023/05/06 03:36:09;;;;;;;4.00;2.90;;;20.40;59.80;20.90;100822.00;;;;5029892;28;20200;-53
2023/05/06 03:38:35;;;;;;;6.43;3.00;;;20.30;59.60;20.80;100822.00;;;;5029370;28;20205;-51
2023/05/06 03:41:00;;;;;;;4.57;3.37;;;20.30;59.60;20.80;100823.00;;;;5029853;28;20225;-52
2023/05/06 03:43:26;;;;;;;5.60;3.30;;;20.30;59.60;20.80;100826.00;;;;5028656;28;20658;-52
2023/05/06 03:45:52;;;;;;;3.80;3.50;;;20.30;59.50;20.80;100828.00;;;;5029734;28;20780;-51
2023/05/06 03:48:17;;;;;;;4.60;3.60;;;20.30;59.60;20.80;100815.00;;;;5029573;28;20207;-53
2023/05/06 03:50:43;;;;;;;5.23;3.47;;;20.30;59.50;20.80;100826.00;;;;5028763;28;20180;-53
2023/05/06 03:53:09;;;;;;;3.60;3.30;;;20.20;59.50;20.70;100827.00;;;;5029441;28;20187;-54
2023/05/06 03:55:35;;;;;;;3.87;3.47;;;20.20;59.50;20.70;100821.00;;;;5030687;28;20175;-53
2023/05/06 03:58:00;;;;;;;4.33;3.77;;;20.20;59.40;20.70;100823.00;;;;5031321;28;20218;-53
2023/05/06 04:00:26;;;;;;;4.80;3.33;;;20.20;59.40;20.70;100823.00;;;;5030323;28;20588;-52
2023/05/06 04:02:52;;;;;;;3.43;3.13;;;20.20;59.30;20.70;100815.00;;;;5029985;28;20177;-52
2023/05/06 04:05:18;;;;;;;4.00;3.50;;;20.20;59.20;20.60;100808.00;;;;5030162;28;20670;-53
2023/05/06 04:07:44;;;;;;;3.93;3.53;;;20.20;59.10;20.60;100797.00;;;;5020779;28;20641;-53
2023/05/06 04:10:09;;;;;;;3.90;3.50;;;20.10;58.90;20.40;100809.00;;;;5041379;28;20180;-53
2023/05/06 04:12:35;;;;;;;3.87;3.43;;;20.10;59.60;20.60;100808.00;;;;5039060;28;20229;-54
2023/05/06 04:15:01;;;;;;;3.73;3.40;;;20.10;58.90;20.60;100804.00;;;;5043845;28;20474;-53
2023/05/06 04:17:27;;;;;;;4.83;3.10;;;20.10;58.90;20.60;100813.00;;;;5030641;28;20325;-52
2023/05/06 04:19:53;;;;;;;3.97;3.50;;;20.10;58.90;20.60;100808.00;;;;5030447;28;20686;-52
2023/05/06 04:22:19;;;;;;;3.50;3.20;;;20.10;58.90;20.50;100811.00;;;;5028756;28;20200;-52
2023/05/06 04:24:45;;;;;;;3.60;3.30;;;20.10;58.90;20.50;100814.00;;;;5028612;28;20173;-52
2023/05/06 04:27:11;;;;;;;3.60;3.30;;;20.10;58.90;20.50;100819.00;;;;5027867;28;20200;-52
2023/05/06 04:29:37;;;;;;;3.60;3.30;;;20.00;58.80;20.50;100769.00;;;;5022470;28;20204;-54
2023/05/06 04:32:03;;;;;;;3.30;3.03;;;20.00;58.80;20.50;100813.00;;;;5026329;28;20199;-52
2023/05/06 04:34:30;;;;;;;3.70;3.40;;;20.00;58.80;20.50;100826.00;;;;5029662;28;20939;-53
2023/05/06 04:36:57;;;;;;;3.17;2.97;;;20.00;58.80;20.40;100833.00;;;;5027409;28;20188;-52
2023/05/06 04:39:23;;;;;;;3.40;3.10;;;20.00;58.70;20.40;100823.00;;;;5029000;28;20794;-52
2023/05/06 04:41:49;;;;;;;3.70;3.00;;;20.00;58.80;20.40;100831.00;;;;5030712;28;20179;-52
2023/05/06 04:44:15;;;;;;;3.80;2.93;;;19.90;58.60;20.40;100828.00;;;;5034820;28;20198;-53
2023/05/06 04:46:41;;;;;;;3.90;3.20;;;19.90;58.60;20.40;100829.00;;;;5035037;28;20182;-52
2023/05/06 04:49:07;;;;;;;3.50;3.20;;;19.90;58.70;20.40;100838.00;;;;5032056;28;20207;-53
2023/05/06 04:51:32;;;;;;;4.10;3.00;;;19.90;58.70;20.40;100848.00;;;;5028827;28;20209;-52
2023/05/06 04:53:58;;;;;;;3.00;2.70;;;19.90;58.70;20.40;100843.00;;;;5029163;28;20180;-52
2023/05/06 04:56:24;;;;;;;3.07;2.87;;;19.90;58.70;20.40;100847.00;;;;5028567;28;20172;-53
2023/05/06 04:58:50;;;;;;;4.53;3.00;;;19.90;59.30;20.30;100844.00;;;;5027214;28;20204;-52
2023/05/06 05:01:18;;;;;;;3.33;2.80;;;19.90;58.70;20.30;100852.00;;;;5029048;28;20234;-52
2023/05/06 05:03:44;;;;;;;2.80;2.60;;;19.90;58.70;20.30;100861.00;;;;5029717;28;20610;-53
2023/05/06 05:06:12;;;;;;;2.90;2.70;;;19.90;58.70;20.30;100870.00;;;;5028668;28;20250;-52
2023/05/06 05:08:38;;;;;;;3.10;2.80;;;19.90;58.80;20.30;100862.00;;;;5028598;28;20285;-52
2023/05/06 05:11:05;;;;;;;3.00;2.70;;;19.80;58.70;20.30;100868.00;;;;5029041;28;20279;-52
2023/05/06 05:13:31;;;;;;;3.30;3.00;;;19.80;58.70;20.30;100864.00;;;;5029122;28;20180;-54
2023/05/06 05:15:57;;;;;;;3.13;2.93;;;19.80;59.20;20.30;100865.00;;;;5029163;28;20186;-53
2023/05/06 05:18:23;;;;;;;3.40;3.10;;;19.80;58.60;20.30;100871.00;;;;5028298;28;20187;-53
2023/05/06 05:20:49;;;;;;;3.17;2.87;;;19.80;58.70;20.30;100862.00;;;;5029054;28;20651;-53
2023/05/06 05:23:15;;;;;;;2.97;2.77;;;19.80;58.70;20.30;100866.00;;;;5028663;28;20186;-54
2023/05/06 05:25:40;;;;;;;3.47;2.87;;;19.80;58.70;20.30;100877.00;;;;5029095;28;20177;-52
2023/05/06 05:28:06;;;;;;;3.00;2.80;;;19.80;58.70;20.20;100870.00;;;;5027574;28;20214;-52
2023/05/06 05:30:32;;;;;;;2.80;2.60;;;19.70;58.60;20.20;100869.00;;;;5028869;28;20240;-51
2023/05/06 05:32:58;;;;;;;2.80;2.60;;;19.80;58.70;20.20;100864.00;;;;5030545;28;20261;-52
2023/05/06 05:35:23;;;;;;;2.77;2.57;;;19.80;58.70;20.20;100866.00;;;;5015437;28;20310;-51
2023/05/06 05:37:49;;;;;;;2.60;2.40;;;19.70;58.60;20.20;100873.00;;;;5008534;28;20232;-52
2023/05/06 05:40:15;;;;;;;2.90;2.70;;;19.70;58.60;20.20;100876.00;;;;5030650;28;20187;-53
2023/05/06 05:42:40;;;;;;;2.90;2.60;;;19.70;58.60;20.20;100874.00;;;;5032372;28;20603;-53
2023/05/06 05:45:07;;;;;;;2.80;2.60;;;19.70;58.70;20.20;100877.00;;;;5033056;28;20179;-52
2023/05/06 05:47:33;;;;;;;3.50;2.40;;;19.70;59.30;20.20;100881.00;;;;5032346;28;20190;-52
2023/05/06 05:49:58;;;;;;;2.90;2.70;;;19.70;58.70;20.20;100879.00;;;;5029089;28;20202;-53
2023/05/06 05:52:24;;;;;;;2.70;2.50;;;19.70;58.80;20.20;100882.00;;;;5032245;28;20763;-52
2023/05/06 05:54:50;;;;;;;2.70;2.50;;;19.70;58.80;20.20;100880.00;;;;5030484;28;20191;-53
2023/05/06 05:57:16;;;;;;;2.97;2.77;;;19.70;58.90;20.20;100889.00;;;;5049842;28;20241;-52
2023/05/06 05:59:41;;;;;;;2.60;2.40;;;19.70;58.90;19.90;100883.00;;;;5044013;28;20190;-52
2023/05/06 06:02:07;;;;;;;3.10;2.90;;;19.60;58.90;20.10;100898.00;;;;5034124;28;20190;-54
2023/05/06 06:04:33;;;;;;;2.80;2.60;;;19.60;59.10;20.10;100889.00;;;;5033555;28;20653;-52
2023/05/06 06:07:00;;;;;;;2.73;2.53;;;19.60;59.00;20.10;100892.00;;;;5033958;28;20159;-52
2023/05/06 06:09:26;;;;;;;2.90;2.70;;;19.60;59.10;20.10;100900.00;;;;5032462;28;20210;-52
2023/05/06 06:11:53;;;;;;;2.90;2.70;;;19.60;59.20;20.10;100893.00;;;;5041853;28;20687;-52
2023/05/06 06:14:18;;;;;;;2.70;2.50;;;19.60;59.20;20.10;100887.00;;;;5040302;28;20177;-52
2023/05/06 06:16:44;;;;;;;2.73;2.53;;;19.60;59.20;20.10;100884.00;;;;5032580;28;20209;-54
2023/05/06 06:19:10;;;;;;;2.50;2.30;;;19.50;59.30;20.10;100887.00;;;;5031657;28;20250;-52
2023/05/06 06:21:35;;;;;;;2.90;2.70;;;19.60;59.40;20.10;100889.00;;;;5030354;28;20186;-52
2023/05/06 06:24:01;;;;;;;2.70;2.50;;;19.50;59.40;20.00;100888.00;;;;5031949;28;20185;-52
2023/05/06 06:26:27;;;;;;;2.70;2.50;;;19.60;59.50;20.00;100895.00;;;;5031567;28;20187;-55
2023/05/06 06:28:53;;;;;;;2.90;2.70;;;19.50;59.50;20.00;100886.00;;;;5027318;28;20219;-52
2023/05/06 06:31:18;;;;;;;2.93;2.73;;;19.50;59.60;20.00;100902.00;;;;5026305;28;20204;-53
2023/05/06 06:33:44;;;;;;;2.80;2.60;;;19.50;59.80;20.00;100894.00;;;;5031925;28;20180;-52
2023/05/06 06:36:10;;;;;;;3.47;3.20;;;19.50;59.90;20.00;100898.00;;;;5030744;28;20179;-52
2023/05/06 06:38:35;;;;;;;2.90;2.70;;;19.50;60.10;19.90;100890.00;;;;5031810;28;20721;-53
2023/05/06 06:41:01;;;;;;;2.87;2.60;;;19.50;60.00;19.90;100829.00;;;;5033535;28;20552;-53
2023/05/06 06:43:27;;;;;;;2.80;2.60;;;19.50;60.20;20.00;100895.00;;;;5030679;28;20189;-52
2023/05/06 06:45:53;;;;;;;2.83;2.63;;;19.40;60.10;20.00;100897.00;;;;5031732;28;20194;-51
2023/05/06 06:48:19;;;;;;;2.87;2.60;;;19.40;60.10;20.00;100899.00;;;;5031098;28;20210;-52
2023/05/06 06:50:44;;;;;;;3.40;3.10;;;19.40;60.60;19.90;100891.00;;;;5030989;28;20179;-52
2023/05/06 06:53:10;;;;;;;2.90;2.70;;;19.50;60.60;19.90;100906.00;;;;5012462;28;20202;-51
2023/05/06 06:55:36;;;;;;;2.90;2.70;;;19.40;60.50;19.90;100902.00;;;;5029398;28;20206;-52
2023/05/06 06:58:02;;;;;;;3.23;2.93;;;19.40;60.60;19.90;100908.00;;;;5030207;28;20626;-51
2023/05/06 07:00:27;;;;;;;3.57;2.80;;;19.40;60.60;19.90;100905.00;;;;5030660;28;20665;-51
2023/05/06 07:02:53;;;;;;;3.00;2.80;;;19.40;60.60;19.90;100904.00;;;;5031211;28;20179;-52
2023/05/06 07:05:19;;;;;;;3.70;3.40;;;19.40;61.00;19.80;100895.00;;;;5029283;28;20252;-53
2023/05/06 07:07:44;;;;;;;4.23;3.50;;;19.30;61.30;19.80;100897.00;;;;5029286;28;20202;-53
2023/05/06 07:10:10;;;;;;;3.60;3.30;;;19.30;61.40;19.80;100897.00;;;;5028934;28;20593;-53
2023/05/06 07:12:36;;;;;;;3.83;3.53;;;19.30;61.40;19.80;100903.00;;;;5028636;28;20218;-52
2023/05/06 07:15:05;;;;;;;3.80;3.50;;;19.30;61.50;19.80;100904.00;;;;5030629;28;20182;-52
2023/05/06 07:17:34;;;;;;;3.50;3.27;;;19.30;61.70;19.80;100901.00;;;;5026929;28;20185;-52
2023/05/06 07:20:00;;;;;;;3.20;3.00;;;19.30;61.40;19.80;100900.00;;;;5026246;28;20669;-52
2023/05/06 07:22:27;;;;;;;3.10;2.90;;;19.30;61.70;19.80;100900.00;;;;5029313;28;20259;-52
2023/05/06 07:24:53;;;;;;;2.93;2.73;;;19.30;62.20;19.80;100903.00;;;;5030893;28;20657;-52
2023/05/06 07:27:19;;;;;;;4.23;3.10;;;19.30;62.10;19.80;100912.00;;;;5029946;28;20187;-52
2023/05/06 07:29:44;;;;;;;5.73;2.73;;;19.30;63.00;19.90;100905.00;;;;5030471;28;20203;-52
2023/05/06 07:32:10;;;;;;;4.27;2.70;;;19.30;62.90;19.90;100908.00;;;;5030375;28;20198;-52
2023/05/06 07:34:36;;;;;;;3.00;2.80;;;19.30;63.10;19.90;100901.00;;;;5030611;28;20178;-52
2023/05/06 07:37:02;;;;;;;2.93;2.63;;;19.30;63.20;19.90;100905.00;;;;5029833;28;20179;-53
2023/05/06 07:39:28;;;;;;;2.73;2.47;;;19.30;63.30;19.90;100904.00;;;;5029070;28;20273;-53
2023/05/06 07:41:54;;;;;;;2.90;2.70;;;19.30;63.10;19.90;100924.00;;;;5029432;28;20183;-51
2023/05/06 07:44:20;;;;;;;3.10;2.87;;;19.30;62.90;19.80;100915.00;;;;5030786;28;20182;-51
2023/05/06 07:46:46;;;;;;;2.60;2.40;;;19.30;63.20;19.90;100915.00;;;;5029387;28;20210;-52
2023/05/06 07:49:12;;;;;;;4.00;2.80;;;19.30;63.30;19.90;100924.00;;;;5029225;28;20199;-51
2023/05/06 07:51:37;;;;;;;3.27;2.90;;;19.30;63.50;19.90;100912.00;;;;5029083;28;20210;-52
2023/05/06 07:54:03;;;;;;;3.00;2.70;;;19.30;63.70;19.90;100921.00;;;;5028957;28;20197;-53
2023/05/06 07:56:29;;;;;;;2.87;2.67;;;19.30;63.30;19.80;100908.00;;;;5030033;28;20246;-52
2023/05/06 07:58:55;;;;;;;3.27;2.70;;;19.30;63.30;19.90;100910.00;;;;5029364;28;20222;-52
2023/05/06 08:01:21;;;;;;;3.97;2.70;;;19.30;63.50;19.90;100916.00;;;;5040671;28;20171;-53
2023/05/06 08:03:47;;;;;;;3.73;2.50;;;19.30;63.60;19.90;100922.00;;;;5041563;28;20175;-51
2023/05/06 08:06:12;;;;;;;2.77;2.57;;;19.30;63.80;19.90;100915.00;;;;5030288;28;20178;-53
2023/05/06 08:08:38;;;;;;;2.77;2.57;;;19.30;63.90;19.90;100913.00;;;;5030953;28;20202;-53
2023/05/06 08:11:04;;;;;;;3.20;2.60;;;19.30;63.90;19.90;100918.00;;;;5030300;28;20206;-52
2023/05/06 08:13:32;;;;;;;4.50;3.10;;;19.30;63.90;19.90;100926.00;;;;5029668;28;20250;-51
2023/05/06 08:15:58;;;;;;;2.60;2.40;;;19.30;64.10;19.90;100927.00;;;;5036722;28;20179;-52
2023/05/06 08:18:23;;;;;;;3.00;2.30;;;19.30;64.10;19.90;100916.00;;;;5043780;28;20217;-52
2023/05/06 08:20:50;;;;;;;2.77;2.50;;;19.30;64.30;19.90;100916.00;;;;5030581;28;20178;-52
2023/05/06 08:23:15;;;;;;;2.70;2.50;;;19.30;64.20;19.90;100916.00;;;;5030216;28;20772;-52
2023/05/06 08:25:41;;;;;;;2.83;2.50;;;19.30;63.80;19.90;100921.00;;;;5030080;28;20257;-52
2023/05/06 08:28:07;;;;;;;2.90;2.37;;;19.30;63.90;19.90;100916.00;;;;5030139;28;20319;-51
2023/05/06 08:30:33;;;;;;;7.20;2.47;;;19.20;64.20;19.90;100912.00;;;;5029234;28;20244;-52
2023/05/06 08:33:00;;;;;;;3.97;2.37;;;19.20;64.20;19.90;100912.00;;;;5028407;28;20772;-52
2023/05/06 08:35:26;;;;;;;3.80;2.70;;;19.30;64.30;19.90;100922.00;;;;5028886;28;20808;-52
2023/05/06 08:37:52;;;;;;;2.63;2.30;;;19.30;64.40;19.90;100921.00;;;;5028061;28;20182;-53
2023/05/06 08:40:19;;;;;;;3.10;2.20;;;19.40;64.50;19.90;100923.00;;;;5028441;28;20260;-52
2023/05/06 08:42:46;;;;;;;3.60;2.30;;;19.30;64.70;19.90;100921.00;;;;5028271;28;20649;-52
2023/05/06 08:45:13;;;;;;;4.03;2.40;;;19.30;64.70;19.90;100914.00;;;;5029034;28;20179;-52
2023/05/06 08:47:39;;;;;;;2.33;2.13;;;19.30;65.40;19.90;100915.00;;;;5030998;28;20201;-51
2023/05/06 08:50:06;;;;;;;2.63;1.90;;;19.30;64.70;19.90;100918.00;;;;5034618;28;20206;-52
2023/05/06 08:52:31;;;;;;;2.30;2.00;;;19.30;64.70;19.90;100920.00;;;;5035529;28;20230;-52
2023/05/06 08:55:00;;;;;;;2.20;2.00;;;19.30;64.80;19.90;100924.00;;;;5031991;28;20581;-52
2023/05/06 08:57:27;;;;;;;2.17;2.00;;;19.30;65.00;19.90;100908.00;;;;5028831;28;20229;-59
2023/05/06 08:59:53;;;;;;;2.40;2.00;;;19.30;64.80;19.90;100911.00;;;;5030102;28;20202;-53
2023/05/06 09:02:19;;;;;;;2.47;2.00;;;19.30;64.70;19.90;100907.00;;;;5031631;28;20187;-53
2023/05/06 09:04:45;;;;;;;2.10;1.90;;;19.30;64.50;19.90;100903.00;;;;5028849;28;20183;-53
2023/05/06 09:07:10;;;;;;;2.13;1.97;;;19.30;65.10;19.90;100911.00;;;;5027379;28;20234;-52
2023/05/06 09:09:36;;;;;;;2.13;1.90;;;19.30;65.00;20.00;100901.00;;;;5028087;28;20854;-52
2023/05/06 09:12:02;;;;;;;1.93;1.80;;;19.30;65.00;19.90;100902.00;;;;5029192;28;20629;-53
2023/05/06 09:14:28;;;;;;;1.80;1.70;;;19.30;65.00;19.90;100898.00;;;;5029717;28;20175;-54
2023/05/06 09:16:54;;;;;;;1.90;1.80;;;19.30;64.80;20.00;100901.00;;;;5029299;28;20237;-52
2023/05/06 09:19:20;;;;;;;2.43;1.90;;;19.30;64.60;20.00;100907.00;;;;5021183;28;20195;-52
2023/05/06 09:21:48;;;;;;;2.03;1.70;;;19.30;64.60;20.00;100895.00;;;;5029320;28;20601;-53
2023/05/06 09:24:14;;;;;;;1.70;1.60;;;19.30;65.10;20.00;100892.00;;;;5029112;28;20732;-53
2023/05/06 09:26:42;;;;;;;2.97;1.90;;;19.30;64.90;20.00;100890.00;;;;5028912;28;20634;-52
2023/05/06 09:29:08;;;;;;;1.80;1.70;;;19.30;65.10;20.00;100890.00;;;;5026288;28;20214;-54
2023/05/06 09:31:40;;;;;;;2.00;1.60;;;19.30;65.60;20.00;100887.00;;;;5018966;28;20269;-54
2023/05/06 09:34:06;;;;;;;1.90;1.80;;;19.40;66.00;20.10;100894.00;;;;5027749;28;20179;-54
2023/05/06 09:36:32;;;;;;;1.60;1.50;;;19.40;66.00;20.10;100893.00;;;;5028993;28;20225;-53
2023/05/06 09:38:58;;;;;;;1.87;1.73;;;19.40;65.60;20.00;100891.00;;;;5003545;28;20230;-53
2023/05/06 09:41:24;;;;;;;2.10;1.87;;;19.40;65.20;20.10;100890.00;;;;5029200;28;20175;-54
2023/05/06 09:43:52;;;;;;;2.03;1.70;;;19.40;65.40;20.10;100885.00;;;;5029182;28;20186;-53
2023/05/06 09:46:19;;;;;;;1.80;1.70;;;19.40;65.50;20.10;100881.00;;;;5028806;28;20179;-54
2023/05/06 09:48:45;;;;;;;1.63;1.53;;;19.40;66.00;20.10;100877.00;;;;5027283;28;20278;-53
2023/05/06 09:51:11;;;;;;;1.90;1.77;;;19.50;66.20;20.10;100873.00;;;;5027370;28;20208;-54
2023/05/06 09:53:37;;;;;;;2.13;1.70;;;19.50;66.20;20.10;100872.00;;;;5027588;28;20597;-53
2023/05/06 09:56:06;;;;;;;2.07;1.90;;;19.50;65.60;20.10;100865.00;;;;5028817;28;20200;-54
2023/05/06 09:58:32;;;;;;;1.80;1.70;;;19.50;65.40;20.10;100868.00;;;;5028616;28;20215;-54
2023/05/06 10:00:58;;;;;;;2.60;1.90;;;19.50;64.60;20.10;100863.00;;;;5028313;28;20218;-53
2023/05/06 10:03:24;;;;;;;1.83;1.73;;;19.60;64.70;20.10;100853.00;;;;5027247;28;20171;-53
2023/05/06 10:05:51;;;;;;;2.10;1.83;;;19.60;65.00;20.10;100839.00;;;;5021787;28;20204;-52
2023/05/06 10:08:17;;;;;;;2.17;1.90;;;19.60;65.10;20.20;100858.00;;;;5035912;28;20200;-54
2023/05/06 10:10:44;;;;;;;2.00;1.80;;;19.60;64.70;20.20;100848.00;;;;5022323;28;20543;-54
2023/05/06 10:13:09;;;;;;;2.30;2.00;;;19.60;64.70;20.20;100853.00;;;;5030339;28;20274;-52
2023/05/06 10:15:36;;;;;;;2.23;2.00;;;19.60;64.80;20.20;100856.00;;;;5030039;28;20178;-52
2023/05/06 10:18:03;;;;;;;2.53;2.10;;;19.60;63.90;20.20;100854.00;;;;5032103;28;20728;-53
2023/05/06 10:20:29;;;;;;;2.13;1.93;;;19.60;64.10;20.20;100830.00;;;;5041717;28;20179;-54
2023/05/06 10:23:32;;;;;;;1.83;1.73;;;19.70;64.40;20.30;100849.00;;;;5041689;28;20333;-52
2023/05/06 10:26:05;;;;;;;2.07;1.70;;;19.70;64.60;20.30;100861.00;;;;5032439;28;20189;-53
2023/05/06 10:28:32;;;;;;;2.80;1.90;;;19.70;64.80;20.30;100846.00;;;;5030674;28;20675;-54
2023/05/06 10:30:58;;;;;;;1.80;1.70;;;19.70;64.90;20.30;100849.00;;;;5030430;28;20182;-54
2023/05/06 10:33:23;;;;;;;2.90;1.80;;;19.70;65.10;20.40;100828.00;;;;5032020;28;20180;-54
2023/05/06 10:36:21;;;;;;;1.80;1.70;;;19.80;64.90;20.40;100836.00;;;;5031264;28;20202;-54
2023/05/06 10:38:55;;;;;;;2.30;1.70;;;19.80;64.90;20.40;100832.00;;;;5030856;28;20202;-53
2023/05/06 10:41:26;;;;;;;2.63;1.70;;;19.80;65.30;20.40;100838.00;;;;5028697;28;20210;-54
2023/05/06 10:44:01;;;;;;;2.00;1.80;;;19.80;65.20;20.40;100835.00;;;;5018650;28;20187;-54